Time;durP1;ratioP1;P1;durP2;ratioP2;P2;SDS_P1;SDS_P2;PMS_P1;PMS_P2;Temp;Humidity;BMP_temperature;BMP_pressure;BME280_temperature;BME280_humidity;BME280_pressure;Samples;Min_cycle;Max_cycle;Signal;HPM_P1;HPM_P2
2021/07/31 00:01:20;;;;;;;13.05;10.30;;;;;;;20.66;81.59;100359.69;1757854;81;21140;-73
2021/07/31 00:03:47;;;;;;;11.95;10.08;;;;;;;20.61;81.30;100360.19;1757913;80;21514;-72
2021/07/31 00:06:14;;;;;;;15.88;11.22;;;;;;;20.59;81.45;100360.84;1757961;81;20967;-72
2021/07/31 00:08:41;;;;;;;11.85;10.75;;;;;;;20.56;81.52;100355.80;1757836;81;20900;-72
2021/07/31 00:11:11;;;;;;;14.28;10.85;;;;;;;20.55;81.72;100358.64;1757912;81;20837;-72
2021/07/31 00:13:38;;;;;;;13.32;10.23;;;;;;;20.56;81.93;100361.12;1758095;81;21846;-73
2021/07/31 00:16:05;;;;;;;14.25;10.70;;;;;;;20.56;81.97;100354.46;1757870;80;20988;-73
2021/07/31 00:18:34;;;;;;;12.50;10.13;;;;;;;20.56;81.81;100352.30;1757915;81;20857;-74
2021/07/31 00:21:01;;;;;;;20.65;10.98;;;;;;;20.57;81.65;100354.84;1758177;81;20900;-72
2021/07/31 00:23:27;;;;;;;11.30;9.75;;;;;;;20.57;81.55;100352.18;1757874;80;21418;-73
2021/07/31 00:25:54;;;;;;;16.20;10.40;;;;;;;20.56;81.24;100347.80;1758255;81;21776;-73
2021/07/31 00:28:25;;;;;;;14.65;10.65;;;;;;;20.57;81.18;100356.69;1749004;80;20869;-72
2021/07/31 00:30:51;;;;;;;11.73;10.28;;;;;;;20.53;80.91;100352.13;1744532;81;20987;-73
2021/07/31 00:33:20;;;;;;;14.87;10.43;;;;;;;20.54;80.76;100348.97;1744528;81;20901;-72
2021/07/31 00:35:46;;;;;;;11.95;10.75;;;;;;;20.52;80.78;100346.95;1744679;82;21382;-72
2021/07/31 00:38:13;;;;;;;14.47;10.60;;;;;;;20.48;80.71;100351.80;1744619;82;21502;-72
2021/07/31 00:40:41;;;;;;;15.35;11.10;;;;;;;20.46;80.66;100347.13;1744540;81;20826;-73
2021/07/31 00:43:09;;;;;;;12.95;10.18;;;;;;;20.43;80.69;100339.45;1744485;82;20972;-72
2021/07/31 00:45:37;;;;;;;14.80;11.33;;;;;;;20.42;80.47;100340.45;1744542;81;20940;-72
2021/07/31 00:48:05;;;;;;;18.77;11.25;;;;;;;20.40;80.53;100334.45;1744537;82;20940;-72
2021/07/31 00:50:33;;;;;;;11.08;9.98;;;;;;;20.37;80.44;100335.63;1744474;82;21116;-72
2021/07/31 00:53:01;;;;;;;16.85;10.55;;;;;;;20.33;80.28;100333.45;1744465;82;20869;-73
2021/07/31 00:55:29;;;;;;;17.73;11.05;;;;;;;20.32;80.21;100339.28;1744530;82;20987;-73
2021/07/31 00:57:57;;;;;;;15.45;10.32;;;;;;;20.29;80.03;100342.25;1744564;81;20988;-73
2021/07/31 01:00:38;;;;;;;15.95;10.45;;;;;;;20.25;79.92;100352.41;1746281;81;20964;-74
2021/07/31 01:03:07;;;;;;;14.80;10.63;;;;;;;20.22;80.08;100356.70;1746991;81;21119;-74
2021/07/31 01:05:33;;;;;;;15.28;9.98;;;;;;;20.18;80.17;100343.38;1745335;82;20961;-73
2021/07/31 01:08:03;;;;;;;13.78;10.90;;;;;;;20.15;80.20;100346.38;1744537;81;20865;-74
2021/07/31 01:10:31;;;;;;;13.38;9.78;;;;;;;20.11;80.59;100341.53;1744617;82;21376;-75
2021/07/31 01:13:01;;;;;;;12.60;9.95;;;;;;;20.11;80.71;100353.00;1708883;83;21395;-74
2021/07/31 01:15:30;;;;;;;12.20;10.90;;;;;;;20.10;80.73;100351.35;1744528;81;22168;-73
2021/07/31 01:17:57;;;;;;;10.93;9.78;;;;;;;20.07;80.90;100348.98;1744518;82;20928;-74
2021/07/31 01:20:26;;;;;;;11.93;10.72;;;;;;;20.05;81.02;100353.64;1744504;82;21505;-73
2021/07/31 01:22:54;;;;;;;13.85;10.48;;;;;;;20.03;81.16;100355.16;1744254;80;21561;-73
2021/07/31 01:25:22;;;;;;;11.20;10.10;;;;;;;20.04;81.21;100363.97;1744608;82;20924;-73
2021/07/31 01:27:49;;;;;;;12.40;9.63;;;;;;;20.00;81.25;100362.11;1747470;80;21100;-73
2021/07/31 01:30:16;;;;;;;10.60;9.60;;;;;;;20.01;81.00;100361.61;1757883;80;20893;-72
2021/07/31 01:32:46;;;;;;;16.02;10.75;;;;;;;20.01;81.10;100363.80;1757792;81;20959;-73
2021/07/31 01:35:13;;;;;;;14.45;10.13;;;;;;;19.99;80.92;100361.78;1757865;80;20833;-72
2021/07/31 01:37:41;;;;;;;11.83;9.33;;;;;;;20.00;80.90;100366.61;1757833;81;20888;-74
2021/07/31 01:40:11;;;;;;;16.57;11.50;;;;;;;19.98;80.90;100360.10;1757812;80;21599;-73
2021/07/31 01:42:37;;;;;;;14.33;9.55;;;;;;;19.96;80.60;100362.59;1758049;80;20972;-73
2021/07/31 01:45:06;;;;;;;14.03;9.80;;;;;;;19.93;80.78;100367.73;1757834;81;20983;-74
2021/07/31 01:47:34;;;;;;;18.92;9.55;;;;;;;19.92;80.70;100370.08;1758047;81;21579;-74
2021/07/31 01:50:01;;;;;;;13.45;11.05;;;;;;;19.92;80.62;100370.55;1740972;81;20884;-72
2021/07/31 01:52:31;;;;;;;14.30;10.03;;;;;;;19.88;80.67;100369.55;1757673;81;21546;-72
2021/07/31 01:54:58;;;;;;;16.57;10.25;;;;;;;19.87;80.67;100373.19;1740880;81;20972;-72
2021/07/31 01:57:26;;;;;;;14.30;9.68;;;;;;;19.85;80.75;100384.52;1757853;80;21493;-73
2021/07/31 02:00:12;;;;;;;15.23;10.08;;;;;;;19.83;80.61;100382.98;1757900;81;21077;-73
2021/07/31 02:02:42;;;;;;;16.20;9.80;;;;;;;19.81;80.57;100388.48;1758237;81;20868;-73
2021/07/31 02:05:10;;;;;;;17.52;11.35;;;;;;;19.76;80.59;100390.76;1721610;83;21210;-74
2021/07/31 02:07:54;;;;;;;16.23;10.10;;;;;;;19.70;80.91;100378.58;1704017;84;20862;-73
2021/07/31 02:10:21;;;;;;;19.48;10.82;;;;;;;19.67;81.03;100384.55;1703741;84;20929;-72
2021/07/31 02:12:50;;;;;;;12.63;10.40;;;;;;;19.66;80.96;100390.02;1703913;84;20984;-74
2021/07/31 02:15:18;;;;;;;16.52;10.50;;;;;;;19.64;81.06;100395.98;1680465;84;20999;-73
2021/07/31 02:17:46;;;;;;;10.72;9.63;;;;;;;19.62;81.19;100395.30;1704053;84;21473;-72
2021/07/31 02:20:13;;;;;;;11.28;9.58;;;;;;;19.59;81.36;100396.96;1679730;84;20901;-72
2021/07/31 02:22:44;;;;;;;18.70;9.68;;;;;;;19.57;81.31;100394.45;1702522;84;20973;-73
2021/07/31 02:25:25;;;;;;;11.60;9.15;;;;;;;19.52;81.29;100399.41;1685630;84;20980;-73
2021/07/31 02:28:12;;;;;;;11.45;9.35;;;;;;;19.50;81.42;100396.54;1701987;84;20901;-74
2021/07/31 02:30:39;;;;;;;17.82;10.63;;;;;;;19.50;81.49;100396.54;1708656;84;21572;-75
2021/07/31 02:33:07;;;;;;;11.10;9.15;;;;;;;19.51;81.55;100398.22;1708596;84;20991;-76
2021/07/31 02:35:35;;;;;;;12.68;9.95;;;;;;;19.53;81.55;100402.39;1708669;83;20945;-75
2021/07/31 02:38:19;;;;;;;12.33;8.55;;;;;;;19.53;81.39;100401.06;1675102;85;21447;-74
2021/07/31 02:40:46;;;;;;;14.40;9.70;;;;;;;19.54;81.24;100402.75;1682835;85;21011;-74
2021/07/31 02:43:13;;;;;;;14.80;9.65;;;;;;;19.54;81.15;100405.41;1731692;82;21602;-73
2021/07/31 02:45:40;;;;;;;10.98;9.88;;;;;;;19.54;81.03;100403.22;1731653;82;21406;-75
2021/07/31 02:48:07;;;;;;;10.75;9.53;;;;;;;19.53;81.11;100403.72;1731485;82;20984;-72
2021/07/31 02:50:35;;;;;;;13.72;9.80;;;;;;;19.52;81.10;100406.05;1731609;82;20992;-70
2021/07/31 02:53:19;;;;;;;14.45;10.50;;;;;;;19.53;81.00;100414.36;1682693;85;20925;-73
2021/07/31 02:55:47;;;;;;;17.55;11.05;;;;;;;19.53;81.16;100409.05;1731497;82;21587;-74
2021/07/31 02:58:14;;;;;;;15.45;10.03;;;;;;;19.52;81.26;100408.72;1731802;82;20960;-72
2021/07/31 03:00:43;;;;;;;11.38;8.98;;;;;;;19.52;81.25;100416.70;1731647;82;20967;-72
2021/07/31 03:03:10;;;;;;;14.65;8.90;;;;;;;19.51;81.21;100406.20;1731901;82;21395;-73
2021/07/31 03:05:38;;;;;;;10.82;9.73;;;;;;;19.52;81.51;100418.50;1682842;83;20998;-74
2021/07/31 03:08:06;;;;;;;13.08;10.40;;;;;;;19.54;81.46;100413.86;1731944;82;21569;-73
2021/07/31 03:10:35;;;;;;;14.20;9.93;;;;;;;19.54;81.47;100413.86;1731713;82;21167;-72
2021/07/31 03:13:02;;;;;;;10.90;9.85;;;;;;;19.56;81.60;100412.70;1740251;82;20853;-71
2021/07/31 03:15:30;;;;;;;15.80;9.65;;;;;;;19.59;81.51;100411.09;1744503;82;20928;-74
2021/07/31 03:17:57;;;;;;;12.20;9.38;;;;;;;19.62;81.41;100413.42;1744960;81;21007;-72
2021/07/31 03:20:24;;;;;;;11.33;8.98;;;;;;;19.64;81.42;100414.11;1744680;82;21120;-73
2021/07/31 03:22:52;;;;;;;11.65;8.90;;;;;;;19.66;81.27;100415.29;1708491;82;21383;-72
2021/07/31 03:25:22;;;;;;;22.67;9.65;;;;;;;19.67;81.33;100420.47;1708855;84;21441;-72
2021/07/31 03:27:49;;;;;;;13.45;10.23;;;;;;;19.67;81.34;100422.27;1708942;84;20912;-73
2021/07/31 03:30:18;;;;;;;10.53;9.45;;;;;;;19.65;81.57;100425.11;1757798;80;20936;-72
2021/07/31 03:32:53;;;;;;;10.40;9.38;;;;;;;19.69;82.13;100430.96;1721197;82;21530;-73
2021/07/31 03:35:20;;;;;;;13.83;8.65;;;;;;;19.76;81.96;100429.34;1721905;83;20872;-73
2021/07/31 03:38:05;;;;;;;12.07;9.80;;;;;;;19.83;82.10;100434.88;1721913;83;20982;-72
2021/07/31 03:40:33;;;;;;;15.10;10.95;;;;;;;19.93;82.04;100430.79;1721772;82;20860;-72
2021/07/31 03:43:00;;;;;;;12.68;9.75;;;;;;;20.01;81.87;100438.33;1703715;84;21495;-72
2021/07/31 03:45:27;;;;;;;10.80;9.43;;;;;;;20.09;81.52;100434.86;1703797;84;21531;-73
2021/07/31 03:47:57;;;;;;;13.32;9.25;;;;;;;20.15;81.58;100430.75;1703858;84;21437;-74
2021/07/31 03:50:25;;;;;;;12.07;8.68;;;;;;;20.20;81.44;100441.23;1703660;84;20968;-74
2021/07/31 03:52:54;;;;;;;15.28;10.50;;;;;;;20.27;81.53;100442.27;1702560;84;21379;-72
2021/07/31 03:55:23;;;;;;;15.95;9.95;;;;;;;20.37;81.56;100444.83;1703800;84;20937;-73
2021/07/31 03:57:51;;;;;;;13.55;9.23;;;;;;;20.46;81.42;100443.86;1703640;84;21830;-73
2021/07/31 04:00:18;;;;;;;11.80;9.20;;;;;;;20.57;81.42;100443.27;1703641;84;20953;-73
2021/07/31 04:02:47;;;;;;;11.00;9.85;;;;;;;20.67;81.32;100439.45;1702575;84;20972;-73
2021/07/31 04:05:14;;;;;;;16.40;12.05;;;;;;;20.78;81.14;100441.48;1703647;84;21075;-73
2021/07/31 04:07:43;;;;;;;16.87;11.85;;;;;;;20.87;80.98;100440.50;1700235;84;20940;-73
2021/07/31 04:10:28;;;;;;;12.05;10.03;;;;;;;20.93;80.80;100446.52;1703829;84;22141;-73
2021/07/31 04:13:15;;;;;;;17.50;9.20;;;;;;;21.04;80.88;100443.54;1699510;84;21008;-71
2021/07/31 04:15:54;;;;;;;17.87;11.50;;;;;;;21.16;80.67;100450.71;1703537;84;20886;-72
2021/07/31 04:18:23;;;;;;;15.18;10.43;;;;;;;21.23;80.65;100448.22;1703637;84;21419;-71
2021/07/31 04:20:51;;;;;;;12.90;10.10;;;;;;;21.31;80.07;100450.89;1703647;84;20917;-73
2021/07/31 04:23:18;;;;;;;13.35;9.98;;;;;;;21.41;79.64;100442.75;1703668;84;21219;-74
2021/07/31 04:25:47;;;;;;;13.58;9.55;;;;;;;21.53;79.40;100446.77;1703225;84;20981;-75
2021/07/31 04:28:14;;;;;;;10.98;9.65;;;;;;;21.80;79.27;100452.23;1703453;84;20878;-72
2021/07/31 04:30:41;;;;;;;12.50;10.13;;;;;;;22.29;78.23;100457.47;1700764;84;20909;-73
2021/07/31 04:33:07;;;;;;;12.68;8.73;;;;;;;22.89;76.82;100457.87;1689129;83;20975;-72
2021/07/31 04:35:36;;;;;;;14.13;9.73;;;;;;;23.51;75.11;100457.77;1755271;81;21505;-72
2021/07/31 04:38:03;;;;;;;15.23;9.75;;;;;;;24.13;72.86;100450.50;1753616;80;20861;-74
2021/07/31 04:40:30;;;;;;;14.00;8.55;;;;;;;24.80;70.32;100458.90;1717183;83;21382;-74
2021/07/31 04:42:57;;;;;;;11.95;9.25;;;;;;;25.41;68.10;100453.97;1716364;82;20923;-74
2021/07/31 04:45:24;;;;;;;9.10;8.20;;;;;;;25.99;66.28;100454.30;1716549;82;20896;-75
2021/07/31 04:47:50;;;;;;;11.05;8.68;;;;;;;26.53;64.09;100455.42;1716466;83;21963;-77
2021/07/31 04:50:17;;;;;;;11.18;8.58;;;;;;;27.02;62.39;100452.48;1716409;82;20919;-76
2021/07/31 04:52:46;;;;;;;9.18;7.90;;;;;;;27.49;60.68;100448.52;1716447;83;21512;-75
2021/07/31 04:55:12;;;;;;;8.85;7.95;;;;;;;27.96;58.76;100448.50;1716409;83;20940;-75
2021/07/31 04:57:39;;;;;;;8.15;7.45;;;;;;;28.39;57.05;100450.14;1752551;82;20932;-75
2021/07/31 05:00:09;;;;;;;8.00;7.17;;;;;;;28.79;55.80;100449.98;1752482;82;21152;-77
2021/07/31 05:02:38;;;;;;;8.78;6.90;;;;;;;29.17;55.04;100455.91;1716466;83;21445;-77
2021/07/31 05:05:05;;;;;;;8.20;6.80;;;;;;;29.52;53.98;100449.47;1716576;83;21425;-76
2021/07/31 05:07:33;;;;;;;11.95;7.35;;;;;;;29.89;53.12;100457.69;1716314;82;20896;-76
2021/07/31 05:10:00;;;;;;;6.90;6.40;;;;;;;30.27;52.00;100453.98;1716632;82;20892;-76
2021/07/31 05:12:28;;;;;;;7.10;6.60;;;;;;;30.63;51.20;100453.63;1716111;83;21165;-75
2021/07/31 05:14:55;;;;;;;7.20;6.60;;;;;;;30.96;50.03;100458.61;1716397;83;21297;-75
2021/07/31 05:17:22;;;;;;;7.87;7.08;;;;;;;31.15;49.07;100463.98;1716420;83;20899;-76
2021/07/31 05:19:50;;;;;;;10.32;6.97;;;;;;;31.39;48.37;100462.11;1752532;81;20901;-75
2021/07/31 05:22:18;;;;;;;9.55;6.25;;;;;;;31.65;47.77;100460.87;1752673;82;20904;-74
2021/07/31 05:24:53;;;;;;;7.53;6.30;;;;;;;31.87;46.64;100457.05;1752462;82;21978;-75
2021/07/31 05:27:14;;;;;;;7.05;6.25;;;;;;;32.10;46.22;100462.17;1752243;81;20991;-75
2021/07/31 05:29:41;;;;;;;6.53;6.03;;;;;;;32.30;45.99;100463.95;1748839;80;20881;-73
2021/07/31 05:32:08;;;;;;;7.00;6.40;;;;;;;32.45;45.71;100466.17;1708713;84;20955;-73
2021/07/31 05:34:35;;;;;;;7.42;6.10;;;;;;;32.67;45.23;100468.26;1708937;82;21059;-75
2021/07/31 05:37:04;;;;;;;7.47;6.78;;;;;;;32.90;44.43;100468.13;1709489;84;21311;-74
2021/07/31 05:39:35;;;;;;;7.30;6.67;;;;;;;33.14;43.79;100463.44;1709090;84;20904;-74
2021/07/31 05:42:05;;;;;;;7.12;5.55;;;;;;;33.41;43.07;100465.50;1744577;82;20980;-73
2021/07/31 05:44:32;;;;;;;6.83;6.12;;;;;;;33.65;42.73;100469.72;1744555;82;21402;-76
2021/07/31 05:46:59;;;;;;;6.15;5.60;;;;;;;33.89;41.95;100464.63;1744533;81;20889;-74
2021/07/31 05:49:30;;;;;;;8.73;6.08;;;;;;;34.04;41.67;100459.41;1744782;80;21138;-76
2021/07/31 05:51:57;;;;;;;7.92;6.15;;;;;;;34.19;41.94;100460.97;1744716;81;20917;-77
2021/07/31 05:54:24;;;;;;;8.15;5.72;;;;;;;34.31;41.40;100469.55;1744728;82;20929;-79
2021/07/31 05:56:51;;;;;;;4.97;4.58;;;;;;;34.37;41.42;100471.26;1744581;81;21339;-75
2021/07/31 05:59:18;;;;;;;6.05;5.47;;;;;;;34.50;40.35;100465.97;1744875;82;21450;-76
2021/07/31 06:01:46;;;;;;;5.08;4.72;;;;;;;34.64;39.69;100468.59;1744586;80;21159;-76
2021/07/31 06:04:13;;;;;;;5.22;4.72;;;;;;;34.80;39.25;100465.52;1744594;81;21392;-76
2021/07/31 06:06:40;;;;;;;4.97;4.55;;;;;;;34.92;38.88;100467.53;1744737;81;20925;-72
2021/07/31 06:09:07;;;;;;;4.83;4.47;;;;;;;35.06;38.60;100464.69;1744642;82;20925;-75
2021/07/31 06:11:34;;;;;;;5.37;4.97;;;;;;;35.19;39.16;100462.08;1744630;82;20841;-76
2021/07/31 06:14:01;;;;;;;4.62;4.22;;;;;;;35.24;38.60;100464.87;1744374;82;21147;-76
2021/07/31 06:16:28;;;;;;;6.75;4.92;;;;;;;35.32;38.68;100461.38;1744588;82;20885;-76
2021/07/31 06:18:55;;;;;;;4.95;4.62;;;;;;;35.41;38.44;100461.17;1744151;81;20976;-77
2021/07/31 06:21:24;;;;;;;7.65;4.65;;;;;;;35.44;39.17;100468.30;1734265;82;20893;-77
2021/07/31 06:23:51;;;;;;;5.08;4.53;;;;;;;35.48;38.67;100464.48;1744359;82;20893;-77
2021/07/31 06:26:18;;;;;;;6.53;4.60;;;;;;;35.55;38.10;100462.90;1744794;82;21434;-76
2021/07/31 06:28:47;;;;;;;3.85;3.55;;;;;;;35.68;37.43;100464.66;1743642;81;20968;-76
2021/07/31 06:31:14;;;;;;;4.53;4.22;;;;;;;35.91;36.56;100461.27;1744767;81;21280;-76
2021/07/31 06:33:41;;;;;;;4.58;4.17;;;;;;;36.08;36.12;100461.05;1708970;84;20896;-70
2021/07/31 06:36:08;;;;;;;5.65;4.28;;;;;;;36.22;36.41;100451.34;1708798;84;20896;-71
2021/07/31 06:38:35;;;;;;;5.53;4.05;;;;;;;36.39;36.26;100457.94;1708720;84;22181;-73
2021/07/31 06:41:02;;;;;;;4.58;4.15;;;;;;;36.51;35.90;100460.45;1708718;82;20913;-72
2021/07/31 06:43:29;;;;;;;5.90;4.95;;;;;;;36.69;35.92;100459.97;1708793;84;20987;-71
2021/07/31 06:45:56;;;;;;;4.92;4.53;;;;;;;36.87;35.38;100462.73;1708741;84;20980;-73
2021/07/31 06:48:22;;;;;;;4.55;4.15;;;;;;;37.06;35.67;100458.91;1709066;84;21425;-72
2021/07/31 06:50:49;;;;;;;8.43;4.35;;;;;;;37.17;35.45;100463.05;1710415;84;21595;-71
2021/07/31 06:53:16;;;;;;;4.53;4.03;;;;;;;37.17;35.92;100461.13;1711536;84;20999;-72
2021/07/31 06:55:43;;;;;;;5.10;4.10;;;;;;;37.23;36.00;100461.41;1710839;84;20948;-72
2021/07/31 06:58:10;;;;;;;6.67;4.67;;;;;;;37.30;36.08;100461.95;1711038;81;20904;-70
2021/07/31 07:00:36;;;;;;;9.15;5.00;;;;;;;37.44;35.88;100468.23;1709850;84;20928;-79
2021/07/31 07:03:03;;;;;;;4.53;4.12;;;;;;;37.61;35.53;100452.92;1709000;84;22074;-70
2021/07/31 07:05:30;;;;;;;7.92;5.22;;;;;;;37.76;34.49;100458.37;1708852;84;20884;-71
2021/07/31 07:07:57;;;;;;;4.22;3.83;;;;;;;37.90;34.17;100464.07;1708908;84;20947;-70
2021/07/31 07:10:24;;;;;;;4.58;4.20;;;;;;;37.99;34.28;100461.58;1708737;84;21375;-70
2021/07/31 07:12:51;;;;;;;4.67;4.28;;;;;;;38.05;34.53;100454.47;1708875;84;20924;-70
2021/07/31 07:15:18;;;;;;;8.15;5.10;;;;;;;38.07;34.47;100459.67;1744628;82;22139;-70
2021/07/31 07:17:45;;;;;;;5.53;5.17;;;;;;;38.08;34.45;100462.67;1744583;81;21490;-70
2021/07/31 07:20:12;;;;;;;4.70;4.30;;;;;;;38.16;34.28;100464.84;1744650;82;20881;-69
2021/07/31 07:22:39;;;;;;;5.50;4.70;;;;;;;38.26;34.36;100457.92;1744783;82;21397;-70
2021/07/31 07:25:07;;;;;;;7.50;5.62;;;;;;;38.28;34.19;100465.31;1744580;81;20917;-69
2021/07/31 07:27:34;;;;;;;6.80;4.87;;;;;;;38.37;33.28;100462.81;1744530;82;22235;-78
2021/07/31 07:30:01;;;;;;;8.75;4.62;;;;;;;38.47;33.37;100461.40;1733931;82;21430;-70
2021/07/31 07:32:28;;;;;;;6.10;4.70;;;;;;;38.49;33.14;100463.90;1744539;82;20972;-70
2021/07/31 07:34:54;;;;;;;5.17;4.67;;;;;;;38.60;33.12;100464.10;1744858;81;20956;-71
2021/07/31 07:37:21;;;;;;;8.98;4.80;;;;;;;38.65;33.14;100468.17;1744648;81;20904;-72
2021/07/31 07:39:48;;;;;;;8.70;4.83;;;;;;;38.67;33.26;100472.02;1744760;81;21555;-71
2021/07/31 07:42:15;;;;;;;4.60;4.20;;;;;;;38.82;33.24;100471.08;1744550;82;21620;-71
2021/07/31 07:44:42;;;;;;;4.65;4.30;;;;;;;38.99;33.03;100466.05;1744454;81;20857;-70
2021/07/31 07:47:10;;;;;;;5.70;4.55;;;;;;;39.07;32.89;100468.19;1744538;81;20971;-74
2021/07/31 07:49:37;;;;;;;5.40;4.90;;;;;;;39.08;32.01;100471.74;1744754;82;20972;-73
2021/07/31 07:52:05;;;;;;;4.47;4.17;;;;;;;39.09;32.57;100470.66;1708734;82;21541;-72
2021/07/31 07:54:32;;;;;;;5.30;4.40;;;;;;;39.05;32.63;100467.65;1709214;82;20912;-72
2021/07/31 07:56:58;;;;;;;4.42;4.12;;;;;;;39.13;32.27;100473.91;1708831;84;20928;-72
2021/07/31 07:59:27;;;;;;;3.98;3.75;;;;;;;39.24;32.58;100475.17;1744509;81;20945;-72
2021/07/31 08:01:54;;;;;;;5.20;4.65;;;;;;;39.28;32.19;100478.98;1744682;80;20921;-72
2021/07/31 08:04:21;;;;;;;5.25;4.85;;;;;;;39.35;32.09;100475.34;1744647;81;21138;-71
2021/07/31 08:06:49;;;;;;;5.87;5.10;;;;;;;39.44;31.58;100475.58;1744554;81;20929;-70
2021/07/31 08:09:18;;;;;;;7.62;4.50;;;;;;;39.53;30.68;100472.46;1744998;82;20861;-70
2021/07/31 08:11:45;;;;;;;5.37;4.50;;;;;;;39.55;31.01;100469.69;1745340;82;20853;-71
2021/07/31 08:14:11;;;;;;;6.80;4.33;;;;;;;39.54;30.70;100478.23;1709160;84;20857;-72
2021/07/31 08:16:39;;;;;;;4.05;3.55;;;;;;;39.58;30.91;100480.67;1708771;84;21099;-71
2021/07/31 08:19:09;;;;;;;5.47;3.87;;;;;;;39.57;30.76;100479.83;1708987;84;20940;-71
2021/07/31 08:21:39;;;;;;;3.85;3.65;;;;;;;39.58;30.36;100479.30;1708712;84;21537;-72
2021/07/31 08:24:07;;;;;;;4.28;3.75;;;;;;;39.70;30.51;100472.03;1708751;84;20936;-71
2021/07/31 08:26:33;;;;;;;4.20;3.90;;;;;;;39.87;29.83;100474.36;1708758;82;21338;-71
2021/07/31 08:29:00;;;;;;;4.15;3.75;;;;;;;39.89;30.21;100471.58;1708676;84;21354;-71
2021/07/31 08:31:27;;;;;;;4.55;4.22;;;;;;;39.94;30.46;100474.82;1715051;82;20884;-77
2021/07/31 08:33:54;;;;;;;4.20;3.50;;;;;;;40.03;29.59;100475.80;1752565;80;20999;-70
2021/07/31 08:36:21;;;;;;;3.92;3.20;;;;;;;40.11;29.30;100478.44;1716657;83;20940;-71
2021/07/31 08:38:48;;;;;;;4.20;3.80;;;;;;;40.16;28.48;100472.91;1716389;83;20912;-71
2021/07/31 08:41:16;;;;;;;4.53;4.12;;;;;;;40.16;28.35;100469.59;1716435;83;21149;-71
2021/07/31 08:43:43;;;;;;;6.17;3.67;;;;;;;40.19;28.55;100466.25;1716263;82;20864;-71
2021/07/31 08:46:10;;;;;;;4.50;4.08;;;;;;;40.28;28.76;100466.45;1716687;83;20943;-72
2021/07/31 08:48:37;;;;;;;5.00;3.33;;;;;;;40.38;27.99;100458.64;1716284;83;20971;-71
2021/07/31 08:51:06;;;;;;;7.45;3.50;;;;;;;40.46;28.67;100466.77;1716650;82;20888;-70
2021/07/31 08:53:36;;;;;;;3.62;3.33;;;;;;;40.51;27.73;100469.43;1716082;83;21149;-70
2021/07/31 08:56:03;;;;;;;3.55;3.25;;;;;;;40.55;27.14;100463.60;1716544;83;21431;-71
2021/07/31 08:58:30;;;;;;;3.77;3.47;;;;;;;40.46;27.48;100465.39;1716305;82;20952;-71
2021/07/31 09:00:57;;;;;;;5.08;3.87;;;;;;;40.28;27.53;100462.32;1716655;82;20987;-69
2021/07/31 09:03:24;;;;;;;3.58;3.27;;;;;;;40.21;27.68;100464.59;1716369;83;20853;-71
2021/07/31 09:05:52;;;;;;;4.05;3.70;;;;;;;40.23;27.82;100462.93;1716411;82;21422;-69
2021/07/31 09:08:19;;;;;;;4.17;3.42;;;;;;;40.25;27.69;100471.14;1716251;83;21032;-70
2021/07/31 09:10:46;;;;;;;3.75;3.33;;;;;;;40.31;27.30;100459.00;1716778;83;21598;-71
2021/07/31 09:13:17;;;;;;;5.97;3.58;;;;;;;40.27;27.37;100453.02;1716369;82;20864;-70
2021/07/31 09:15:52;;;;;;;4.65;3.52;;;;;;;40.24;27.80;100464.55;1716133;83;21393;-71
2021/07/31 09:18:21;;;;;;;6.25;3.37;;;;;;;40.23;27.77;100463.73;1716384;83;21204;-72
2021/07/31 09:21:15;;;;;;;3.62;3.37;;;;;;;40.20;28.17;100461.59;1716561;82;20987;-70
2021/07/31 09:23:45;;;;;;;3.52;3.30;;;;;;;40.07;27.58;100459.56;1716301;83;20891;-72
2021/07/31 09:26:36;;;;;;;3.87;2.95;;;;;;;39.88;27.86;100459.50;1716645;83;20896;-71
2021/07/31 09:29:09;;;;;;;3.65;3.30;;;;;;;39.77;28.19;100456.02;1713959;83;20865;-71
2021/07/31 09:31:39;;;;;;;3.87;3.55;;;;;;;39.72;28.85;100450.59;1710280;83;21096;-71
2021/07/31 09:34:08;;;;;;;3.58;3.37;;;;;;;39.74;28.04;100445.62;1708596;84;20999;-72
2021/07/31 09:36:44;;;;;;;4.08;3.77;;;;;;;39.81;27.90;100453.52;1708710;84;20853;-72
2021/07/31 09:39:11;;;;;;;3.62;3.42;;;;;;;39.82;27.97;100450.45;1708646;84;20943;-72
2021/07/31 09:41:39;;;;;;;4.03;3.72;;;;;;;39.72;28.23;100450.59;1708795;82;20896;-72
2021/07/31 09:45:52;;;;;;;3.33;3.12;;;;;;;39.81;28.04;100450.21;1816141;78;22332;-72
2021/07/31 09:48:19;;;;;;;4.22;3.58;;;;;;;39.77;27.95;100442.29;1789533;80;20908;-71
2021/07/31 09:50:47;;;;;;;4.10;3.20;;;;;;;39.79;28.05;100449.68;1789192;80;21096;-73
2021/07/31 09:53:17;;;;;;;4.08;3.77;;;;;;;39.71;27.93;100444.29;1789325;80;21010;-71
2021/07/31 09:55:49;;;;;;;4.83;3.42;;;;;;;39.54;27.99;100443.92;1789556;80;20864;-73
2021/07/31 09:58:19;;;;;;;3.47;3.25;;;;;;;39.43;28.11;100443.77;1789466;80;20935;-72
2021/07/31 10:00:50;;;;;;;3.72;3.42;;;;;;;39.31;27.67;100444.94;1789702;80;20935;-74
2021/07/31 10:03:17;;;;;;;4.45;3.50;;;;;;;39.36;27.68;100445.44;1789881;80;21050;-72
2021/07/31 10:05:44;;;;;;;3.58;3.27;;;;;;;39.46;26.77;100441.23;1789406;80;21365;-74
2021/07/31 10:08:13;;;;;;;3.33;3.12;;;;;;;39.46;28.33;100441.80;1789708;80;20868;-73
2021/07/31 10:10:40;;;;;;;3.30;3.05;;;;;;;39.36;27.48;100433.09;1789520;80;20923;-72
2021/07/31 10:13:08;;;;;;;4.70;3.65;;;;;;;39.36;27.50;100433.09;1789430;80;20939;-72
2021/07/31 10:15:35;;;;;;;3.55;3.35;;;;;;;39.39;27.47;100428.41;1758756;80;21993;-73
2021/07/31 10:18:10;;;;;;;3.42;3.22;;;;;;;39.35;27.13;100438.30;1789339;80;20880;-73
2021/07/31 10:20:38;;;;;;;3.47;3.15;;;;;;;39.12;26.78;100432.48;1789542;80;21373;-73
2021/07/31 10:23:07;;;;;;;3.47;3.17;;;;;;;38.91;27.63;100430.44;1789720;80;21018;-74
2021/07/31 10:25:35;;;;;;;4.12;3.20;;;;;;;38.72;28.46;100431.66;1789392;80;20963;-74
2021/07/31 10:28:26;;;;;;;4.55;3.45;;;;;;;38.62;28.67;100426.27;1789782;80;21480;-76
2021/07/31 10:30:53;;;;;;;3.83;3.08;;;;;;;38.59;28.13;100430.12;1789044;80;20923;-76
2021/07/31 10:33:44;;;;;;;3.60;3.30;;;;;;;38.49;27.37;100428.27;1789441;80;21017;-74
2021/07/31 10:36:34;;;;;;;3.65;3.08;;;;;;;38.45;28.20;100423.05;1789558;80;21599;-78
2021/07/31 10:39:31;;;;;;;3.80;3.50;;;;;;;38.49;28.54;100423.60;1789789;80;21409;-79
2021/07/31 10:42:02;;;;;;;4.12;3.52;;;;;;;38.56;29.10;100428.21;1720650;82;21325;-77
2021/07/31 10:44:32;;;;;;;5.28;4.00;;;;;;;38.65;28.71;100424.31;1720962;82;20904;-77
2021/07/31 10:47:24;;;;;;;4.17;3.52;;;;;;;38.69;28.86;100418.53;1719563;82;21019;-76
2021/07/31 10:49:52;;;;;;;3.70;3.47;;;;;;;38.74;28.83;100416.30;1719677;83;20916;-76
2021/07/31 10:52:56;;;;;;;4.72;4.30;;;;;;;38.86;28.43;100418.11;1719614;83;20960;-76
2021/07/31 10:55:44;;;;;;;3.55;3.35;;;;;;;38.91;28.85;100418.62;1719697;83;21215;-76
2021/07/31 10:58:16;;;;;;;4.65;3.22;;;;;;;38.90;26.62;100408.22;1718901;83;20896;-76
2021/07/31 11:00:53;;;;;;;4.25;3.90;;;;;;;38.87;26.57;100407.99;1719061;82;20868;-74
2021/07/31 11:03:27;;;;;;;4.05;3.65;;;;;;;38.92;27.95;100408.75;1715590;82;20908;-75
2021/07/31 11:06:00;;;;;;;3.40;3.20;;;;;;;39.00;28.79;100409.27;1719386;83;21039;-74
2021/07/31 11:08:36;;;;;;;3.30;3.02;;;;;;;39.04;27.64;100404.28;1719066;82;21221;-77
2021/07/31 11:11:21;;;;;;;3.70;3.40;;;;;;;39.05;27.70;100402.38;1709963;83;21417;-78
2021/07/31 11:13:51;;;;;;;3.95;3.52;;;;;;;39.01;27.60;100398.02;1719112;83;20857;-76
2021/07/31 11:16:23;;;;;;;4.87;2.85;;;;;;;38.95;27.26;100406.02;1757630;80;20900;-74
2021/07/31 11:18:59;;;;;;;3.83;2.90;;;;;;;38.89;27.88;100406.59;1785901;80;20927;-75
2021/07/31 11:21:25;;;;;;;3.05;2.85;;;;;;;38.81;27.71;100399.53;1784668;80;21972;-75
2021/07/31 11:24:08;;;;;;;5.12;3.58;;;;;;;38.71;28.20;100395.77;1785701;80;20848;-76
2021/07/31 11:26:50;;;;;;;5.00;3.35;;;;;;;38.62;27.64;100393.91;1785415;80;20885;-76
2021/07/31 11:29:22;;;;;;;3.95;3.52;;;;;;;38.41;27.57;100393.20;1785692;80;20947;-76
2021/07/31 11:32:13;;;;;;;3.42;3.20;;;;;;;38.26;27.85;100398.22;1786151;80;21413;-74